^^
Station Historical Data
Daily Summary for March 24, 2017 Units:  English    Metric   Both
« Previous Day
Next Day »
Daily Weekly Monthly Yearly Custom
  High: Low: Average:
Temperature: 53.9 °F 28.0 °F 41.2 °F
Dew Point: 40.2 °F 14.4 °F 28.6 °F
Humidity: 78 % 45 % 61 %
Wind Speed: 8.7 mph 0.0 mph 2.4 mph
Wind Gust: 15.0 mph - -
Wind:- - SSW
Pressure: 30.55 in 30.13 in -
Precipitation: 0.00 in    
Historical Graphs
 
 
Tabular Data for March 24, 2017
Time Temperature Dew Point Pressure Wind Wind Speed Wind Gust Humidity Rainfall Rate (Hourly) solar Conditions
00:03 29.0 °F 19.1 °F 30.55 in Calm     66 % 0.00 in 0.0 W/m2 CLR
00:08 29.0 °F 19.1 °F 30.54 in Calm     66 % 0.00 in 0.0 W/m2 CLR
00:13 29.0 °F 19.1 °F 30.54 in Calm     66 % 0.00 in 0.0 W/m2 CLR
00:18 29.2 °F 19.2 °F 30.53 in Calm     66 % 0.00 in 0.0 W/m2 CLR
00:23 29.2 °F 19.6 °F 30.53 in Calm     67 % 0.00 in 0.0 W/m2 CLR
00:28 29.3 °F 19.3 °F 30.53 in Calm     66 % 0.00 in 0.0 W/m2 CLR
00:33 29.1 °F 18.8 °F 30.53 in Calm     65 % 0.00 in 0.0 W/m2 CLR
00:38 29.0 °F 18.7 °F 30.54 in Calm     65 % 0.00 in 0.0 W/m2 CLR
00:43 28.9 °F 19.0 °F 30.53 in Calm     66 % 0.00 in 0.0 W/m2 CLR
00:48 29.0 °F 19.1 °F 30.53 in Calm     66 % 0.00 in 0.0 W/m2 CLR
00:53 28.7 °F 18.8 °F 30.53 in Calm     66 % 0.00 in 0.0 W/m2 CLR
00:58 28.6 °F 19.0 °F 30.53 in Calm     67 % 0.00 in 0.0 W/m2 CLR
01:03 28.5 °F 19.3 °F 30.53 in Calm     68 % 0.00 in 0.0 W/m2 CLR
01:08 28.8 °F 19.6 °F 30.54 in Calm     68 % 0.00 in 0.0 W/m2 CLR
01:13 28.7 °F 19.1 °F 30.54 in Calm     67 % 0.00 in 0.0 W/m2 CLR
01:18 28.8 °F 19.2 °F 30.54 in Calm     67 % 0.00 in 0.0 W/m2 CLR
01:23 29.0 °F 19.1 °F 30.53 in Calm     66 % 0.00 in 0.0 W/m2 CLR
01:28 28.8 °F 18.9 °F 30.54 in Calm     66 % 0.00 in 0.0 W/m2 CLR
01:33 28.7 °F 18.8 °F 30.54 in Calm     66 % 0.00 in 0.0 W/m2 CLR
01:38 29.0 °F 19.1 °F 30.54 in Calm     66 % 0.00 in 0.0 W/m2 CLR
01:44 29.0 °F 19.1 °F 30.55 in Calm     66 % 0.00 in 0.0 W/m2 CLR
01:49 28.9 °F 19.0 °F 30.54 in Calm     66 % 0.00 in 0.0 W/m2 CLR
01:54 28.3 °F 18.7 °F 30.53 in Calm     67 % 0.00 in 0.0 W/m2 CLR
01:59 28.4 °F 19.2 °F 30.53 in Calm     68 % 0.00 in 0.0 W/m2 CLR
02:04 28.3 °F 19.1 °F 30.52 in Calm     68 % 0.00 in 0.0 W/m2 CLR
02:09 28.5 °F 19.6 °F 30.52 in Calm     69 % 0.00 in 0.0 W/m2 CLR
02:13 28.3 °F 19.4 °F 30.52 in Calm     69 % 0.00 in 0.0 W/m2 CLR
02:18 28.5 °F 19.6 °F 30.52 in Calm     69 % 0.00 in 0.0 W/m2 CLR
02:23 28.2 °F 19.3 °F 30.52 in Calm     69 % 0.00 in 0.0 W/m2 CLR
02:28 28.0 °F 19.5 °F 30.52 in Calm     70 % 0.00 in 0.0 W/m2 CLR
02:34 28.2 °F 20.0 °F 30.52 in Calm     71 % 0.00 in 0.0 W/m2 CLR
02:39 28.5 °F 20.0 °F 30.52 in Calm     70 % 0.00 in 0.0 W/m2 CLR
02:44 28.8 °F 20.2 °F 30.52 in Calm     70 % 0.00 in 0.0 W/m2 CLR
02:49 29.5 °F 20.6 °F 30.51 in Calm     69 % 0.00 in 0.0 W/m2 CLR
02:54 29.5 °F 20.2 °F 30.51 in Calm     68 % 0.00 in 0.0 W/m2 CLR
02:59 29.5 °F 20.2 °F 30.50 in Calm     68 % 0.00 in 0.0 W/m2 CLR
03:04 29.8 °F 20.5 °F 30.50 in Calm     68 % 0.00 in 0.0 W/m2 CLR
03:09 29.7 °F 20.1 °F 30.49 in Calm     67 % 0.00 in 0.0 W/m2 CLR
03:14 29.7 °F 20.1 °F 30.49 in Calm     67 % 0.00 in 0.0 W/m2 CLR
03:19 29.8 °F 20.2 °F 30.49 in Calm     67 % 0.00 in 0.0 W/m2 CLR
03:24 30.3 °F 19.6 °F 30.48 in Calm     64 % 0.00 in 0.0 W/m2 CLR
03:29 30.7 °F 18.4 °F 30.48 in SSW 1.6 mph 3.5 mph 60 % 0.00 in 0.0 W/m2 CLR
03:34 32.3 °F 16.6 °F 30.48 in SSW 2.7 mph 3.5 mph 52 % 0.00 in 0.0 W/m2 CLR
03:39 33.4 °F 15.3 °F 30.48 in South 2.5 mph 4.0 mph 47 % 0.00 in 0.0 W/m2 CLR
03:41 33.5 °F 15.4 °F 30.48 in South 1.4 mph 3.5 mph 47 % 0.00 in 0.0 W/m2 CLR
03:46 33.7 °F 14.6 °F 30.48 in South 4.2 mph 5.8 mph 45 % 0.00 in 0.0 W/m2 CLR
03:51 33.8 °F 14.7 °F 30.47 in South 2.8 mph 5.0 mph 45 % 0.00 in 0.0 W/m2 CLR
03:56 33.9 °F 14.8 °F 30.47 in South 2.1 mph 5.8 mph 45 % 0.00 in 0.0 W/m2 CLR
04:01 33.9 °F 14.8 °F 30.47 in South 3.6 mph 8.1 mph 45 % 0.00 in 0.0 W/m2 CLR
04:06 33.8 °F 14.7 °F 30.47 in SSW 6.4 mph 8.1 mph 45 % 0.00 in 0.0 W/m2 CLR
04:11 33.8 °F 14.7 °F 30.48 in South 2.0 mph 4.6 mph 45 % 0.00 in 0.0 W/m2 CLR
04:16 33.7 °F 14.6 °F 30.49 in Calm     45 % 0.00 in 0.0 W/m2 CLR
04:21 33.3 °F 14.7 °F 30.49 in Calm     46 % 0.00 in 0.0 W/m2 CLR
04:26 33.0 °F 15.4 °F 30.49 in Calm     48 % 0.00 in 0.0 W/m2 CLR
04:27 32.9 °F 14.8 °F 30.49 in Calm     47 % 0.00 in 0.0 W/m2 CLR
04:32 33.5 °F 14.4 °F 30.49 in SSW 1.2 mph 4.6 mph 45 % 0.00 in 0.0 W/m2 CLR
04:37 33.6 °F 14.5 °F 30.49 in Calm     45 % 0.00 in 0.0 W/m2 CLR
04:42 33.6 °F 14.5 °F 30.49 in Calm     45 % 0.00 in 0.0 W/m2 CLR
04:47 33.3 °F 15.7 °F 30.49 in Calm     48 % 0.00 in 0.0 W/m2 CLR
04:52 32.6 °F 16.4 °F 30.49 in Calm     51 % 0.00 in 0.0 W/m2 CLR
04:57 32.2 °F 16.5 °F 30.49 in Calm     52 % 0.00 in 0.0 W/m2 CLR
05:02 32.1 °F 16.9 °F 30.49 in Calm     53 % 0.00 in 0.0 W/m2 CLR
05:07 31.9 °F 17.1 °F 30.49 in Calm     54 % 0.00 in 0.0 W/m2 CLR
05:12 31.5 °F 17.6 °F 30.48 in Calm     56 % 0.00 in 0.0 W/m2 CLR
05:17 31.4 °F 17.5 °F 30.48 in Calm     56 % 0.00 in 0.0 W/m2 CLR
05:22 31.2 °F 16.9 °F 30.47 in Calm     55 % 0.00 in 0.0 W/m2 CLR
05:27 31.3 °F 17.0 °F 30.47 in Calm     55 % 0.00 in 0.0 W/m2 CLR
05:32 31.4 °F 16.7 °F 30.47 in Calm     54 % 0.00 in 0.0 W/m2 CLR
05:37 31.1 °F 16.8 °F 30.47 in Calm     55 % 0.00 in 0.0 W/m2 CLR
05:42 30.9 °F 17.0 °F 30.46 in Calm     56 % 0.00 in 0.0 W/m2 CLR
05:47 31.1 °F 16.4 °F 30.46 in Calm   2.3 mph 54 % 0.00 in 0.0 W/m2 CLR
05:52 32.2 °F 16.1 °F 30.46 in South 3.2 mph 6.9 mph 51 % 0.00 in 0.0 W/m2 CLR
05:57 33.5 °F 16.4 °F 30.45 in South 2.6 mph 3.5 mph 49 % 0.00 in 0.0 W/m2 CLR
06:02 34.1 °F 15.9 °F 30.45 in South 3.2 mph 4.6 mph 47 % 0.00 in 0.0 W/m2 CLR
06:07 34.6 °F 15.9 °F 30.45 in SSW 6.0 mph 9.2 mph 46 % 0.00 in 0.0 W/m2 CLR
06:12 34.7 °F 15.5 °F 30.45 in SSW 5.5 mph 9.2 mph 45 % 0.00 in 0.0 W/m2 CLR
06:17 34.6 °F 15.9 °F 30.45 in South 3.1 mph 8.1 mph 46 % 0.00 in 0.0 W/m2 CLR
06:22 34.6 °F 15.9 °F 30.45 in South 3.3 mph 7.0 mph 46 % 0.00 in 0.0 W/m2 CLR
06:32 34.4 °F 16.7 °F 30.45 in South 4.8 mph 5.8 mph 48 % 0.00 in 0.0 W/m2 CLR
06:37 34.1 °F 16.9 °F 30.44 in South 3.4 mph 8.0 mph 49 % 0.00 in 0.0 W/m2 CLR
06:42 34.0 °F 16.8 °F 30.45 in South 1.6 mph 3.5 mph 49 % 0.00 in 0.0 W/m2 CLR
06:47 34.0 °F 17.3 °F 30.45 in SSW 2.2 mph 4.6 mph 50 % 0.00 in 0.0 W/m2 CLR
06:52 34.0 °F 17.7 °F 30.45 in SSW 0.1 mph 3.5 mph 51 % 0.00 in 0.0 W/m2 CLR
06:57 33.8 °F 18.0 °F 30.44 in South 1.1 mph 3.0 mph 52 % 0.00 in 0.0 W/m2 CLR
07:02 33.9 °F 18.1 °F 30.44 in South 3.4 mph 4.6 mph 52 % 0.00 in 0.0 W/m2 CLR
07:07 34.0 °F 18.6 °F 30.43 in South 1.1 mph 4.6 mph 53 % 0.00 in 5.0 W/m2 CLR
07:12 33.9 °F 19.0 °F 30.43 in South 3.4 mph 4.0 mph 54 % 0.00 in 9.0 W/m2 CLR
07:18 34.0 °F 19.1 °F 30.43 in South 5.8 mph 7.0 mph 54 % 0.00 in 16.0 W/m2 CLR
07:23 34.2 °F 19.7 °F 30.43 in South 4.3 mph 9.2 mph 55 % 0.00 in 28.0 W/m2 CLR
07:28 34.5 °F 20.4 °F 30.43 in SSW 2.7 mph 4.0 mph 56 % 0.00 in 42.0 W/m2 CLR
07:33 34.8 °F 20.7 °F 30.43 in SSW 3.3 mph 6.0 mph 56 % 0.00 in 49.0 W/m2 CLR
07:38 35.0 °F 21.3 °F 30.43 in SSW 2.5 mph 5.0 mph 57 % 0.00 in 54.0 W/m2 CLR
07:43 35.4 °F 22.1 °F 30.44 in South 2.7 mph 4.0 mph 58 % 0.00 in 60.0 W/m2 CLR
07:48 35.6 °F 22.3 °F 30.44 in South 1.9 mph 5.0 mph 58 % 0.00 in 72.0 W/m2 CLR
07:53 35.9 °F 23.0 °F 30.44 in South 0.3 mph 3.5 mph 59 % 0.00 in 88.0 W/m2 CLR
07:58 36.2 °F 23.6 °F 30.44 in SSW 3.0 mph 4.6 mph 60 % 0.00 in 90.0 W/m2 CLR
08:03 36.6 °F 24.4 °F 30.44 in South 0.6 mph 4.0 mph 61 % 0.00 in 98.0 W/m2 CLR
08:08 36.9 °F 25.1 °F 30.44 in SSW 7.5 mph 9.2 mph 62 % 0.00 in 113.0 W/m2 CLR
08:13 37.3 °F 25.5 °F 30.44 in SSW 5.4 mph 9.2 mph 62 % 0.00 in 128.0 W/m2 CLR
08:18 37.5 °F 26.0 °F 30.44 in South 5.8 mph 10.4 mph 63 % 0.00 in 127.0 W/m2 CLR
08:23 37.6 °F 26.1 °F 30.44 in SW 4.8 mph 9.2 mph 63 % 0.00 in 142.0 W/m2 CLR
08:28 37.8 °F 26.7 °F 30.45 in SSW 6.2 mph 9.2 mph 64 % 0.00 in 158.0 W/m2 CLR
08:33 37.8 °F 26.7 °F 30.44 in SSW 8.5 mph 12.7 mph 64 % 0.00 in 165.0 W/m2 CLR
08:38 37.9 °F 26.8 °F 30.44 in SW 3.5 mph 5.8 mph 64 % 0.00 in 162.0 W/m2 FEW
08:43 38.1 °F 27.0 °F 30.44 in SSW 6.4 mph 11.5 mph 64 % 0.00 in 139.0 W/m2 SCT
08:48 38.2 °F 27.1 °F 30.43 in SSW 5.1 mph 9.2 mph 64 % 0.00 in 139.0 W/m2 SCT
08:53 38.2 °F 27.5 °F 30.44 in SSW 6.6 mph 13.8 mph 65 % 0.00 in 174.0 W/m2 SCT
08:58 38.2 °F 27.5 °F 30.44 in SSW 5.4 mph 9.2 mph 65 % 0.00 in 225.0 W/m2 CLR
09:03 38.3 °F 27.6 °F 30.43 in SW 6.2 mph 9.2 mph 65 % 0.00 in 308.0 W/m2 CLR
09:08 38.9 °F 28.1 °F 30.43 in SSW 7.7 mph 10.4 mph 65 % 0.00 in 299.0 W/m2 CLR
09:13 39.1 °F 27.9 °F 30.43 in South 6.8 mph 12.7 mph 64 % 0.00 in 401.0 W/m2 CLR
09:18 39.5 °F 28.3 °F 30.43 in SW 5.1 mph 9.2 mph 64 % 0.00 in 271.0 W/m2 CLR
09:23 39.6 °F 28.4 °F 30.42 in SSW 6.6 mph 9.2 mph 64 % 0.00 in 350.0 W/m2 CLR
09:28 39.8 °F 28.2 °F 30.42 in SSW 3.1 mph 4.6 mph 63 % 0.00 in 218.0 W/m2 SCT
09:33 40.0 °F 28.4 °F 30.42 in SSW 6.0 mph 10.4 mph 63 % 0.00 in 167.0 W/m2 BKN
09:38 40.1 °F 28.5 °F 30.42 in SW 4.1 mph 4.6 mph 63 % 0.00 in 221.0 W/m2 SCT
09:43 40.1 °F 28.5 °F 30.42 in West 3.3 mph 8.1 mph 63 % 0.00 in 193.0 W/m2 SCT
09:48 40.3 °F 28.7 °F 30.42 in SW 4.9 mph 6.0 mph 63 % 0.00 in 260.0 W/m2 SCT
09:53 40.4 °F 28.8 °F 30.42 in SW 5.4 mph 8.1 mph 63 % 0.00 in 172.0 W/m2 BKN
09:58 40.4 °F 28.4 °F 30.41 in SSW 4.1 mph 10.4 mph 62 % 0.00 in 128.0 W/m2 BKN
10:03 40.4 °F 28.8 °F 30.40 in SSW 7.2 mph 13.0 mph 63 % 0.00 in 125.0 W/m2 BKN
10:08 40.4 °F 28.8 °F 30.41 in WSW 4.5 mph 8.1 mph 63 % 0.00 in 118.0 W/m2 OVC
10:13 40.5 °F 28.9 °F 30.41 in SW 3.8 mph 7.0 mph 63 % 0.00 in 120.0 W/m2 OVC
10:18 40.5 °F 28.5 °F 30.42 in SSW 4.1 mph 8.1 mph 62 % 0.00 in 93.0 W/m2 OVC
10:23 40.5 °F 28.5 °F 30.41 in SW 4.2 mph 6.9 mph 62 % 0.00 in 225.0 W/m2 BKN
10:28 40.7 °F 29.1 °F 30.41 in SW 3.8 mph 6.9 mph 63 % 0.00 in 162.0 W/m2 BKN
10:33 40.7 °F 29.5 °F 30.40 in SSW 3.5 mph 11.5 mph 64 % 0.00 in 86.0 W/m2 OVC
10:38 40.7 °F 29.5 °F 30.40 in SSW 7.1 mph 12.0 mph 64 % 0.00 in 134.0 W/m2 OVC
10:43 40.7 °F 29.1 °F 30.40 in SSW 5.3 mph 6.9 mph 63 % 0.00 in 172.0 W/m2 BKN
10:49 40.6 °F 29.0 °F 30.41 in SW 8.7 mph 15.0 mph 63 % 0.00 in 113.0 W/m2 OVC
10:57 40.3 °F 29.1 °F 30.40 in SSW 8.6 mph 9.2 mph 64 % 0.00 in 79.0 W/m2 OVC
11:02 40.0 °F 29.2 °F 30.41 in SSW 3.8 mph 6.9 mph 65 % 0.00 in 62.0 W/m2 OVC
11:07 39.9 °F 29.5 °F 30.40 in South 6.7 mph 10.4 mph 66 % 0.00 in 90.0 W/m2 OVC
11:08 39.9 °F 29.5 °F 30.40 in South 6.1 mph 10.4 mph 66 % 0.00 in 100.0 W/m2 OVC
11:13 39.8 °F 29.4 °F 30.39 in South 5.0 mph 9.2 mph 66 % 0.00 in 98.0 W/m2 OVC
11:19 39.5 °F 29.8 °F 30.39 in SSW 5.0 mph 12.0 mph 68 % 0.00 in 107.0 W/m2 OVC
11:27 39.5 °F 29.8 °F 30.38 in SSW 7.0 mph 7.0 mph 68 % 0.00 in 83.0 W/m2 OVC
11:32 39.6 °F 29.9 °F 30.38 in SW 5.4 mph 8.1 mph 68 % 0.00 in 118.0 W/m2 OVC
11:33 39.6 °F 29.9 °F 30.38 in SW 5.4 mph 8.1 mph 68 % 0.00 in 118.0 W/m2 OVC
11:37 39.6 °F 30.3 °F 30.38 in South 4.8 mph 8.1 mph 69 % 0.00 in 149.0 W/m2 OVC
11:42 39.8 °F 30.5 °F 30.38 in SW 0.8 mph 4.0 mph 69 % 0.00 in 127.0 W/m2 OVC
11:47 39.9 °F 30.2 °F 30.38 in SSW 4.1 mph 6.9 mph 68 % 0.00 in 137.0 W/m2 OVC
11:52 40.0 °F 30.3 °F 30.37 in SSW 1.4 mph 5.8 mph 68 % 0.00 in 113.0 W/m2 OVC
11:57 40.1 °F 30.4 °F 30.37 in WSW 1.1 mph 3.5 mph 68 % 0.00 in 74.0 W/m2 OVC
12:02 40.2 °F 30.1 °F 30.37 in WSW 2.0 mph 8.1 mph 67 % 0.00 in 58.0 W/m2 OVC
12:07 40.3 °F 30.6 °F 30.37 in Calm   2.0 mph 68 % 0.00 in 70.0 W/m2 OVC
12:12 40.3 °F 30.2 °F 30.37 in SW 2.7 mph 4.0 mph 67 % 0.00 in 83.0 W/m2 OVC
12:18 40.3 °F 30.2 °F 30.36 in SSW 4.2 mph 6.9 mph 67 % 0.00 in 118.0 W/m2 OVC
12:23 40.4 °F 30.3 °F 30.35 in SSW 4.6 mph 6.9 mph 67 % 0.00 in 120.0 W/m2 OVC
12:28 40.6 °F 30.1 °F 30.35 in SW 0.9 mph 3.5 mph 66 % 0.00 in 142.0 W/m2 OVC
12:33 40.9 °F 30.4 °F 30.35 in South 1.7 mph 3.5 mph 66 % 0.00 in 197.0 W/m2 OVC
12:38 41.2 °F 30.3 °F 30.34 in SSW 2.3 mph 4.6 mph 65 % 0.00 in 306.0 W/m2 BKN
12:43 41.8 °F 30.5 °F 30.34 in SW 1.0 mph 3.5 mph 64 % 0.00 in 436.0 W/m2 SCT
12:48 42.3 °F 30.6 °F 30.34 in SSW 2.7 mph 5.8 mph 63 % 0.00 in 387.0 W/m2 SCT
12:53 42.3 °F 30.6 °F 30.33 in SW 2.6 mph 6.9 mph 63 % 0.00 in 404.0 W/m2 SCT
12:58 42.7 °F 30.6 °F 30.32 in SW 3.9 mph 10.4 mph 62 % 0.00 in 318.0 W/m2 SCT
13:03 42.7 °F 30.2 °F 30.32 in SSW 3.6 mph 5.8 mph 61 % 0.00 in 320.0 W/m2 BKN
13:08 42.8 °F 30.3 °F 30.32 in SSW 3.6 mph 5.8 mph 61 % 0.00 in 313.0 W/m2 BKN
13:13 43.4 °F 30.8 °F 30.32 in SSW 5.5 mph 8.1 mph 61 % 0.00 in 325.0 W/m2 BKN
13:18 43.7 °F 30.7 °F 30.31 in SW 2.9 mph 6.0 mph 60 % 0.00 in 418.0 W/m2 SCT
13:23 44.1 °F 30.7 °F 30.31 in SSW 4.7 mph 6.9 mph 59 % 0.00 in 406.0 W/m2 SCT
13:28 44.8 °F 30.9 °F 30.31 in WSW 6.3 mph 11.5 mph 58 % 0.00 in 455.0 W/m2 SCT
13:33 45.5 °F 31.1 °F 30.30 in SW 6.1 mph 10.4 mph 57 % 0.00 in 573.0 W/m2 FEW
13:38 45.9 °F 31.1 °F 30.30 in SSW 6.3 mph 11.5 mph 56 % 0.00 in 550.0 W/m2 FEW
13:43 45.9 °F 31.1 °F 30.29 in SSW 6.8 mph 12.7 mph 56 % 0.00 in 554.0 W/m2 FEW
13:48 45.8 °F 31.0 °F 30.29 in South 8.0 mph 12.7 mph 56 % 0.00 in 417.0 W/m2 SCT
13:53 45.9 °F 31.1 °F 30.29 in SW 2.6 mph 8.1 mph 56 % 0.00 in 817.0 W/m2 BKN
13:58 46.5 °F 31.2 °F 30.29 in South 6.3 mph 12.7 mph 55 % 0.00 in 779.0 W/m2 CLR
14:03 47.2 °F 31.8 °F 30.28 in SW 5.6 mph 9.2 mph 55 % 0.00 in 773.0 W/m2 CLR
14:08 48.0 °F 32.1 °F 30.28 in South 4.3 mph 10.0 mph 54 % 0.00 in 770.0 W/m2 CLR
14:13 47.9 °F 31.6 °F 30.27 in SSW 3.3 mph 8.1 mph 53 % 0.00 in 788.0 W/m2 CLR
14:18 47.9 °F 32.0 °F 30.27 in South 4.0 mph 11.5 mph 54 % 0.00 in 759.0 W/m2 CLR
14:24 49.1 °F 32.7 °F 30.26 in SW 6.3 mph 11.5 mph 53 % 0.00 in 838.0 W/m2 CLR
14:29 49.1 °F 32.7 °F 30.26 in SW 5.9 mph 9.2 mph 53 % 0.00 in 772.0 W/m2 CLR
14:34 49.0 °F 32.6 °F 30.26 in SSW 4.9 mph 7.0 mph 53 % 0.00 in 752.0 W/m2 CLR
14:39 49.7 °F 33.2 °F 30.25 in SSW 4.6 mph 7.0 mph 53 % 0.00 in 496.0 W/m2 FEW
14:44 50.0 °F 33.5 °F 30.25 in SW 5.7 mph 10.4 mph 53 % 0.00 in 691.0 W/m2 CLR
14:49 50.1 °F 33.6 °F 30.24 in SW 7.0 mph 12.7 mph 53 % 0.00 in 605.0 W/m2 CLR
14:54 50.6 °F 34.1 °F 30.24 in SSW 4.0 mph 6.9 mph 53 % 0.00 in 601.0 W/m2 CLR
14:59 50.5 °F 34.0 °F 30.24 in WSW 3.5 mph 8.1 mph 53 % 0.00 in 345.0 W/m2 BKN
15:04 50.4 °F 34.4 °F 30.23 in SW 5.7 mph 11.5 mph 54 % 0.00 in 318.0 W/m2 SCT
15:09 50.3 °F 34.3 °F 30.22 in SW 1.9 mph 5.8 mph 54 % 0.00 in 299.0 W/m2 SCT
15:14 50.7 °F 34.6 °F 30.22 in SSW 6.2 mph 11.5 mph 54 % 0.00 in 420.0 W/m2 SCT
15:19 50.8 °F 34.7 °F 30.22 in SSW 4.5 mph 9.2 mph 54 % 0.00 in 302.0 W/m2 FEW
15:24 50.7 °F 34.6 °F 30.21 in SSW 4.6 mph 8.1 mph 54 % 0.00 in 483.0 W/m2 FEW
15:29 51.4 °F 35.3 °F 30.21 in SW 5.4 mph 9.2 mph 54 % 0.00 in 417.0 W/m2 FEW
15:34 51.5 °F 35.4 °F 30.20 in South 7.6 mph 11.5 mph 54 % 0.00 in 392.0 W/m2 SCT
15:39 51.5 °F 35.4 °F 30.20 in SSW 6.1 mph 9.2 mph 54 % 0.00 in 373.0 W/m2 FEW
15:44 51.3 °F 35.2 °F 30.20 in South 1.0 mph 3.5 mph 54 % 0.00 in 330.0 W/m2 SCT
15:49 51.8 °F 35.7 °F 30.19 in SSW 1.1 mph 5.8 mph 54 % 0.00 in 269.0 W/m2 BKN
15:54 51.9 °F 35.8 °F 30.19 in SSW 1.2 mph 5.8 mph 54 % 0.00 in 283.0 W/m2 SCT
15:59 51.9 °F 35.8 °F 30.19 in SSW 1.8 mph 6.0 mph 54 % 0.00 in 301.0 W/m2 SCT
16:04 51.7 °F 35.6 °F 30.19 in SW 4.1 mph 9.2 mph 54 % 0.00 in 315.0 W/m2 SCT
16:09 52.0 °F 36.3 °F 30.19 in SW 1.9 mph 5.0 mph 55 % 0.00 in 325.0 W/m2 SCT
16:14 52.4 °F 36.7 °F 30.18 in SSW 2.1 mph 3.5 mph 55 % 0.00 in 274.0 W/m2 SCT
16:19 52.7 °F 37.0 °F 30.18 in SSW 3.4 mph 8.1 mph 55 % 0.00 in 283.0 W/m2 SCT
16:24 52.4 °F 37.2 °F 30.18 in SSW 2.2 mph 6.9 mph 56 % 0.00 in 315.0 W/m2 FEW
16:29 52.6 °F 37.3 °F 30.18 in SW 2.2 mph 4.6 mph 56 % 0.00 in 304.0 W/m2 FEW
16:34 53.0 °F 37.7 °F 30.18 in SSW 4.9 mph 8.1 mph 56 % 0.00 in 269.0 W/m2 SCT
16:39 53.0 °F 38.2 °F 30.17 in SSW 3.2 mph 6.0 mph 57 % 0.00 in 283.0 W/m2 FEW
16:44 53.2 °F 38.4 °F 30.17 in SW 3.5 mph 5.8 mph 57 % 0.00 in 251.0 W/m2 SCT
16:49 53.4 °F 38.5 °F 30.17 in WSW 4.0 mph 8.1 mph 57 % 0.00 in 236.0 W/m2 SCT
16:54 53.3 °F 38.4 °F 30.17 in SSW 3.1 mph 4.6 mph 57 % 0.00 in 223.0 W/m2 SCT
16:59 53.4 °F 39.0 °F 30.17 in SSW 2.8 mph 6.9 mph 58 % 0.00 in 202.0 W/m2 SCT
17:04 53.4 °F 39.0 °F 30.16 in WSW 4.9 mph 9.2 mph 58 % 0.00 in 193.0 W/m2 SCT
17:09 53.5 °F 39.1 °F 30.16 in SSW 5.2 mph 11.5 mph 58 % 0.00 in 176.0 W/m2 SCT
17:14 53.5 °F 39.1 °F 30.16 in SW 1.2 mph 4.0 mph 58 % 0.00 in 172.0 W/m2 SCT
17:19 53.5 °F 39.1 °F 30.16 in SSW 1.0 mph 5.8 mph 58 % 0.00 in 158.0 W/m2 SCT
17:24 53.5 °F 39.5 °F 30.15 in SW 6.3 mph 8.1 mph 59 % 0.00 in 141.0 W/m2 BKN
17:29 53.5 °F 39.5 °F 30.15 in SSW 2.7 mph 6.0 mph 59 % 0.00 in 141.0 W/m2 SCT
17:34 53.5 °F 39.5 °F 30.15 in South 3.9 mph 5.0 mph 59 % 0.00 in 153.0 W/m2 SCT
17:39 53.6 °F 39.6 °F 30.15 in South 1.1 mph 6.0 mph 59 % 0.00 in 163.0 W/m2 FEW
17:44 53.7 °F 39.7 °F 30.15 in WSW 3.4 mph 9.2 mph 59 % 0.00 in 165.0 W/m2 SCT
17:49 53.8 °F 39.8 °F 30.14 in SSW 5.3 mph 7.0 mph 59 % 0.00 in 135.0 W/m2 SCT
17:54 53.9 °F 39.9 °F 30.14 in SSW 3.7 mph 8.1 mph 59 % 0.00 in 111.0 W/m2 SCT
17:59 53.8 °F 39.8 °F 30.14 in SSW 4.8 mph 8.1 mph 59 % 0.00 in 93.0 W/m2 SCT
18:05 53.7 °F 40.1 °F 30.14 in SSW 5.0 mph 9.0 mph 60 % 0.00 in 76.0 W/m2 BKN
18:10 53.7 °F 40.1 °F 30.15 in SSW 1.0 mph 8.0 mph 60 % 0.00 in 72.0 W/m2 BKN
18:15 53.6 °F 40.0 °F 30.14 in SSW 4.0 mph 5.8 mph 60 % 0.00 in 69.0 W/m2 BKN
18:20 53.5 °F 39.9 °F 30.14 in SSW 2.8 mph 5.8 mph 60 % 0.00 in 67.0 W/m2 SCT
18:25 53.4 °F 39.9 °F 30.14 in SSW 2.7 mph 4.6 mph 60 % 0.00 in 56.0 W/m2 BKN
18:30 53.3 °F 40.2 °F 30.14 in SSW 0.3 mph 2.3 mph 61 % 0.00 in 47.0 W/m2 BKN
18:35 53.2 °F 40.1 °F 30.14 in SSW 2.1 mph 4.6 mph 61 % 0.00 in 39.0 W/m2 BKN
18:40 53.1 °F 40.0 °F 30.14 in SSW 4.8 mph 8.1 mph 61 % 0.00 in 33.0 W/m2 BKN
18:45 53.0 °F 39.9 °F 30.14 in SSW 2.4 mph 6.0 mph 61 % 0.00 in 28.0 W/m2 BKN
18:50 52.7 °F 39.6 °F 30.15 in SSW 3.9 mph 5.8 mph 61 % 0.00 in 25.0 W/m2 BKN
18:55 52.5 °F 39.4 °F 30.15 in SSW 1.9 mph 4.0 mph 61 % 0.00 in 21.0 W/m2 BKN
19:00 52.3 °F 39.2 °F 30.14 in SSW 0.8 mph 3.5 mph 61 % 0.00 in 18.0 W/m2 SCT
19:05 52.0 °F 39.0 °F 30.14 in South 3.0 mph 6.9 mph 61 % 0.00 in 12.0 W/m2 BKN
19:10 51.8 °F 38.8 °F 30.14 in SSW 3.5 mph 6.0 mph 61 % 0.00 in 9.0 W/m2 SCT
19:15 51.6 °F 38.6 °F 30.14 in South 3.6 mph 4.6 mph 61 % 0.00 in 5.0 W/m2 SCT
19:20 51.5 °F 38.9 °F 30.14 in SSW 2.4 mph 5.8 mph 62 % 0.00 in 0.0 W/m2 SCT
19:25 51.3 °F 38.7 °F 30.14 in SSW 3.1 mph 4.6 mph 62 % 0.00 in 0.0 W/m2 SCT
19:26 51.2 °F 38.6 °F 30.13 in Calm   3.5 mph 62 % 0.00 in 0.0 W/m2 SCT
19:31 51.0 °F 38.4 °F 30.13 in SSW 0.3 mph   62 % 0.00 in 0.0 W/m2 SCT
19:36 50.8 °F 38.2 °F 30.14 in Calm   4.6 mph 62 % 0.00 in 0.0 W/m2 SCT
19:41 50.6 °F 38.1 °F 30.14 in SSW 1.1 mph 4.6 mph 62 % 0.00 in 0.0 W/m2 SCT
19:46 50.4 °F 37.9 °F 30.14 in SSW 3.1 mph 5.8 mph 62 % 0.00 in 0.0 W/m2 SCT
19:52 50.4 °F 37.9 °F 30.14 in Calm   3.5 mph 62 % 0.00 in 0.0 W/m2 SCT
19:57 50.1 °F 37.6 °F 30.14 in SSW 1.3 mph 5.0 mph 62 % 0.00 in 0.0 W/m2 SCT
20:02 50.0 °F 37.5 °F 30.14 in SSW 4.4 mph 6.9 mph 62 % 0.00 in 0.0 W/m2 SCT
20:07 49.9 °F 37.4 °F 30.14 in SSW 1.7 mph 6.9 mph 62 % 0.00 in 0.0 W/m2 SCT
20:12 49.8 °F 37.3 °F 30.14 in Calm     62 % 0.00 in 0.0 W/m2 SCT
20:17 49.6 °F 37.1 °F 30.13 in SSW 1.3 mph 4.6 mph 62 % 0.00 in 0.0 W/m2 SCT
20:22 49.5 °F 37.0 °F 30.14 in SW 1.5 mph 4.6 mph 62 % 0.00 in 0.0 W/m2 SCT
20:27 49.4 °F 36.9 °F 30.14 in Calm     62 % 0.00 in 0.0 W/m2 SCT
20:32 49.3 °F 36.8 °F 30.14 in Calm     62 % 0.00 in 0.0 W/m2 SCT
20:37 49.4 °F 36.5 °F 30.15 in Calm     61 % 0.00 in 0.0 W/m2 SCT
20:42 49.4 °F 36.5 °F 30.16 in Calm     61 % 0.00 in 0.0 W/m2 SCT
20:47 49.4 °F 36.5 °F 30.16 in Calm     61 % 0.00 in 0.0 W/m2 SCT
20:52 49.2 °F 36.3 °F 30.16 in Calm     61 % 0.00 in 0.0 W/m2 SCT
20:57 48.9 °F 36.4 °F 30.16 in Calm     62 % 0.00 in 0.0 W/m2 SCT
21:02 48.6 °F 36.2 °F 30.17 in Calm     62 % 0.00 in 0.0 W/m2 SCT
21:07 48.1 °F 36.1 °F 30.17 in Calm     63 % 0.00 in 0.0 W/m2 SCT
21:12 47.5 °F 36.3 °F 30.17 in Calm     65 % 0.00 in 0.0 W/m2 SCT
21:17 47.1 °F 35.9 °F 30.17 in Calm     65 % 0.00 in 0.0 W/m2 SCT
21:22 47.1 °F 36.3 °F 30.17 in Calm     66 % 0.00 in 0.0 W/m2 SCT
21:27 47.0 °F 36.6 °F 30.18 in Calm     67 % 0.00 in 0.0 W/m2 SCT
21:32 47.1 °F 36.7 °F 30.18 in Calm     67 % 0.00 in 0.0 W/m2 SCT
21:37 46.9 °F 36.5 °F 30.18 in Calm     67 % 0.00 in 0.0 W/m2 SCT
21:42 46.4 °F 36.0 °F 30.18 in Calm     67 % 0.00 in 0.0 W/m2 SCT
21:47 45.8 °F 35.8 °F 30.18 in Calm     68 % 0.00 in 0.0 W/m2 SCT
21:52 45.7 °F 36.1 °F 30.18 in Calm     69 % 0.00 in 0.0 W/m2 SCT
21:57 45.9 °F 36.3 °F 30.18 in Calm     69 % 0.00 in 0.0 W/m2 SCT
22:02 45.4 °F 35.8 °F 30.18 in Calm     69 % 0.00 in 0.0 W/m2 SCT
22:07 44.9 °F 35.7 °F 30.18 in Calm     70 % 0.00 in 0.0 W/m2 SCT
22:09 44.8 °F 35.6 °F 30.18 in Calm     70 % 0.00 in 0.0 W/m2 SCT
22:14 44.3 °F 35.5 °F 30.18 in Calm     71 % 0.00 in 0.0 W/m2 SCT
22:19 44.1 °F 35.6 °F 30.18 in Calm     72 % 0.00 in 0.0 W/m2 SCT
22:24 43.9 °F 35.5 °F 30.18 in Calm     72 % 0.00 in 0.0 W/m2 SCT
22:29 43.8 °F 35.7 °F 30.18 in Calm     73 % 0.00 in 0.0 W/m2 SCT
22:34 43.5 °F 35.4 °F 30.17 in Calm     73 % 0.00 in 0.0 W/m2 SCT
22:39 43.2 °F 35.1 °F 30.17 in Calm     73 % 0.00 in 0.0 W/m2 SCT
22:44 42.9 °F 35.2 °F 30.17 in Calm     74 % 0.00 in 0.0 W/m2 SCT
22:49 42.8 °F 35.4 °F 30.17 in Calm     75 % 0.00 in 0.0 W/m2 SCT
22:54 42.7 °F 35.3 °F 30.17 in Calm     75 % 0.00 in 0.0 W/m2 SCT
22:59 42.5 °F 35.1 °F 30.17 in Calm     75 % 0.00 in 0.0 W/m2 SCT
23:04 42.3 °F 35.3 °F 30.16 in Calm     76 % 0.00 in 0.0 W/m2 SCT
23:09 42.2 °F 35.2 °F 30.16 in Calm     76 % 0.00 in 0.0 W/m2 SCT
23:14 42.2 °F 35.5 °F 30.16 in Calm     77 % 0.00 in 0.0 W/m2 SCT
23:19 42.1 °F 35.4 °F 30.16 in Calm     77 % 0.00 in 0.0 W/m2 SCT
23:24 41.9 °F 35.2 °F 30.16 in Calm     77 % 0.00 in 0.0 W/m2 SCT
23:29 42.0 °F 35.6 °F 30.16 in Calm     78 % 0.00 in 0.0 W/m2 SCT
23:34 41.9 °F 35.5 °F 30.16 in Calm     78 % 0.00 in 0.0 W/m2 SCT
23:39 42.0 °F 35.6 °F 30.15 in Calm     78 % 0.00 in 0.0 W/m2 SCT
23:44 41.9 °F 35.5 °F 30.15 in Calm     78 % 0.00 in 0.0 W/m2 SCT
23:49 42.0 °F 35.3 °F 30.15 in Calm     77 % 0.00 in 0.0 W/m2 SCT
23:54 42.0 °F 35.3 °F 30.15 in Calm     77 % 0.00 in 0.0 W/m2 SCT
23:59 42.0 °F 35.6 °F 30.15 in Calm     78 % 0.00 in 0.0 W/m2 SCT
Air Products Campus Weather
Compliments of Weather Underground - 3.5 mb